createdAt,value
2023-12-29T00:00:49.895Z,8.20
2023-12-29T00:03:16.542Z,8.20
2023-12-29T00:05:43.378Z,8.10
2023-12-29T00:08:10.092Z,8.20
2023-12-29T00:10:36.754Z,8.20
2023-12-29T00:13:03.509Z,8.20
2023-12-29T00:15:30.407Z,8.20
2023-12-29T00:17:57.190Z,8.30
2023-12-29T00:20:33.657Z,8.20
2023-12-29T00:23:07.443Z,8.30
2023-12-29T00:25:38.129Z,8.30
2023-12-29T00:28:05.640Z,8.30
2023-12-29T00:30:43.476Z,8.30
2023-12-29T00:33:18.985Z,8.40
2023-12-29T00:35:45.741Z,8.30
2023-12-29T00:38:12.401Z,8.30
2023-12-29T00:40:39.075Z,7.80
2023-12-29T00:43:05.941Z,8.40
2023-12-29T00:45:37.291Z,8.20
2023-12-29T00:48:04.765Z,8.30
2023-12-29T00:50:31.871Z,8.30
2023-12-29T00:52:58.518Z,8.40
2023-12-29T00:55:25.415Z,8.30
2023-12-29T00:57:52.159Z,8.30
2023-12-29T01:00:18.948Z,8.20
2023-12-29T01:02:45.597Z,8.30
2023-12-29T01:05:15.664Z,8.20
2023-12-29T01:07:42.378Z,8.30
2023-12-29T01:10:09.643Z,8.30
2023-12-29T01:12:36.466Z,8.30
2023-12-29T01:15:03.413Z,8.40
2023-12-29T01:17:30.072Z,8.40
2023-12-29T01:19:56.867Z,8.40
2023-12-29T01:22:23.548Z,8.30
2023-12-29T01:24:50.273Z,8.40
2023-12-29T01:27:17.032Z,8.30
2023-12-29T01:29:43.671Z,8.30
2023-12-29T01:32:11.585Z,8.40
2023-12-29T01:34:38.478Z,8.40
2023-12-29T01:37:05.618Z,8.40
2023-12-29T01:39:32.443Z,8.40
2023-12-29T01:41:59.125Z,8.40
2023-12-29T01:44:25.897Z,8.40
2023-12-29T01:46:55.918Z,8.40
2023-12-29T01:49:22.806Z,8.30
2023-12-29T01:51:56.118Z,8.30
2023-12-29T01:54:26.450Z,8.40
2023-12-29T01:56:56.453Z,8.30
2023-12-29T01:59:26.645Z,8.30
2023-12-29T02:01:56.003Z,8.30
2023-12-29T02:04:25.912Z,8.30
2023-12-29T02:06:53.141Z,8.40
2023-12-29T02:09:19.858Z,8.40
2023-12-29T02:11:47.808Z,8.40
2023-12-29T02:14:18.401Z,8.40
2023-12-29T02:16:53.945Z,8.40
2023-12-29T02:19:48.481Z,8.40
2023-12-29T02:22:15.742Z,8.30
2023-12-29T02:24:52.243Z,8.40
2023-12-29T02:27:56.375Z,8.50
2023-12-29T02:30:28.799Z,8.40
2023-12-29T02:33:00.526Z,8.30
2023-12-29T02:35:29.870Z,8.30
2023-12-29T02:37:57.425Z,8.30
2023-12-29T02:40:26.267Z,8.30
2023-12-29T02:42:52.965Z,8.30
2023-12-29T02:45:19.719Z,8.30
2023-12-29T02:47:47.003Z,8.30
2023-12-29T02:50:13.734Z,8.40
2023-12-29T02:52:40.448Z,8.40
2023-12-29T02:55:07.471Z,8.50
2023-12-29T02:57:34.359Z,8.60
2023-12-29T03:00:01.117Z,8.70
2023-12-29T03:02:27.775Z,8.60
2023-12-29T03:04:54.381Z,8.60
2023-12-29T03:07:21.123Z,8.50
2023-12-29T03:09:48.502Z,8.50
2023-12-29T03:12:15.337Z,8.50
2023-12-29T03:14:42.011Z,8.50
2023-12-29T03:17:08.639Z,8.60
2023-12-29T03:19:35.294Z,8.60
2023-12-29T03:22:02.025Z,8.60
2023-12-29T03:24:30.352Z,8.60
2023-12-29T03:26:57.321Z,8.20
2023-12-29T03:29:24.007Z,8.70
2023-12-29T03:31:50.752Z,8.60
2023-12-29T03:34:17.635Z,8.50
2023-12-29T03:36:44.654Z,8.60
2023-12-29T03:39:11.327Z,8.60
2023-12-29T03:41:37.927Z,8.60
2023-12-29T03:44:04.846Z,8.60
2023-12-29T03:46:31.479Z,8.60
2023-12-29T03:48:58.572Z,8.70
2023-12-29T03:51:25.736Z,8.60
2023-12-29T03:53:52.376Z,8.60
2023-12-29T03:56:19.883Z,8.80
2023-12-29T03:58:47.367Z,8.70
2023-12-29T04:01:15.737Z,8.70
2023-12-29T04:03:43.154Z,8.70
2023-12-29T04:06:11.164Z,8.80
2023-12-29T04:08:38.927Z,8.80
2023-12-29T04:11:06.518Z,8.80
2023-12-29T04:13:33.247Z,8.60
2023-12-29T04:16:00.046Z,8.80
2023-12-29T04:18:26.996Z,8.80
2023-12-29T04:20:53.625Z,8.80
2023-12-29T04:23:20.270Z,8.50
2023-12-29T04:25:47.203Z,8.70
2023-12-29T04:28:14.280Z,8.80
2023-12-29T04:30:41.088Z,8.80
2023-12-29T04:33:08.019Z,8.80
2023-12-29T04:35:34.642Z,8.80
2023-12-29T04:38:01.387Z,8.80
2023-12-29T04:40:28.448Z,8.70
2023-12-29T04:42:55.174Z,8.70
2023-12-29T04:45:22.041Z,8.80
2023-12-29T04:47:48.735Z,9.20
2023-12-29T04:50:15.637Z,8.80
2023-12-29T04:52:42.330Z,8.80
2023-12-29T04:55:09.592Z,8.80
2023-12-29T04:57:36.393Z,8.70
2023-12-29T05:00:03.841Z,8.70
2023-12-29T05:02:30.515Z,8.70
2023-12-29T05:04:57.165Z,8.60
2023-12-29T05:07:25.369Z,8.60
2023-12-29T05:09:52.132Z,8.60
2023-12-29T05:12:18.829Z,8.70
2023-12-29T05:14:45.476Z,8.40
2023-12-29T05:17:12.100Z,8.70
2023-12-29T05:19:38.866Z,8.60
2023-12-29T05:22:05.688Z,8.60
2023-12-29T05:24:32.472Z,8.30
2023-12-29T05:26:59.302Z,8.70
2023-12-29T05:29:27.117Z,8.70
2023-12-29T05:31:53.745Z,8.70
2023-12-29T05:34:20.601Z,7.90
2023-12-29T05:36:50.564Z,8.80
2023-12-29T05:39:17.724Z,8.90
2023-12-29T05:41:44.359Z,8.90
2023-12-29T05:44:11.054Z,8.90
2023-12-29T05:46:37.717Z,8.90
2023-12-29T05:49:04.538Z,9.00
2023-12-29T05:51:31.343Z,9.00
2023-12-29T05:53:58.011Z,9.00
2023-12-29T05:56:26.292Z,9.00
2023-12-29T05:58:53.279Z,9.10
2023-12-29T06:01:20.844Z,9.10
2023-12-29T06:03:47.637Z,9.00
2023-12-29T06:06:14.385Z,9.00
2023-12-29T06:08:41.025Z,9.00
2023-12-29T06:11:07.923Z,9.10
2023-12-29T06:13:34.584Z,9.10
2023-12-29T06:16:01.309Z,9.10
2023-12-29T06:18:28.643Z,9.20
2023-12-29T06:20:55.460Z,9.20
2023-12-29T06:23:22.110Z,9.20
2023-12-29T06:25:48.726Z,9.20
2023-12-29T06:28:15.352Z,9.10
2023-12-29T06:30:42.264Z,9.10
2023-12-29T06:33:09.200Z,9.10
2023-12-29T06:35:35.995Z,9.10
2023-12-29T06:38:02.805Z,8.90
2023-12-29T06:40:29.566Z,9.10
2023-12-29T06:42:56.253Z,9.20
2023-12-29T06:45:22.996Z,9.20
2023-12-29T06:47:49.714Z,9.10
2023-12-29T06:50:16.504Z,9.20
2023-12-29T06:52:43.590Z,9.20
2023-12-29T06:55:10.587Z,9.30
2023-12-29T06:57:37.626Z,9.30
2023-12-29T07:00:05.552Z,9.30
2023-12-29T07:02:32.317Z,9.30
2023-12-29T07:04:58.934Z,9.30
2023-12-29T07:07:26.375Z,9.30
2023-12-29T07:09:53.275Z,9.40
2023-12-29T07:12:20.075Z,9.40
2023-12-29T07:14:46.738Z,9.30
2023-12-29T07:17:13.666Z,9.10
2023-12-29T07:19:40.496Z,9.40
2023-12-29T07:22:08.388Z,9.40
2023-12-29T07:24:36.961Z,9.10
2023-12-29T07:27:04.543Z,9.40
2023-12-29T07:29:31.440Z,9.50
2023-12-29T07:31:58.118Z,9.50
2023-12-29T07:34:24.906Z,9.60
2023-12-29T07:36:51.819Z,9.60
2023-12-29T07:39:20.028Z,9.60
2023-12-29T07:41:47.473Z,9.60
2023-12-29T07:44:14.326Z,9.60
2023-12-29T07:46:41.914Z,9.60
2023-12-29T07:49:08.911Z,9.60
2023-12-29T07:51:39.764Z,9.60
2023-12-29T07:54:06.565Z,9.60
2023-12-29T07:56:33.308Z,9.70
2023-12-29T07:58:59.978Z,9.60
2023-12-29T08:01:28.106Z,9.60
2023-12-29T08:03:55.157Z,9.60
2023-12-29T08:06:22.022Z,9.70
2023-12-29T08:08:48.648Z,9.80
2023-12-29T08:11:17.337Z,9.80
2023-12-29T08:13:45.921Z,9.90
2023-12-29T08:16:12.873Z,9.80
2023-12-29T08:18:39.911Z,9.80
2023-12-29T08:21:06.819Z,9.90
2023-12-29T08:23:33.422Z,9.90
2023-12-29T08:26:00.179Z,9.90
2023-12-29T08:28:27.410Z,9.90
2023-12-29T08:30:54.246Z,9.90
2023-12-29T08:33:20.949Z,9.90
2023-12-29T08:35:47.596Z,10.00
2023-12-29T08:38:14.274Z,10.00
2023-12-29T08:40:42.615Z,10.00
2023-12-29T08:43:09.257Z,10.00
2023-12-29T08:45:36.736Z,10.00
2023-12-29T08:48:04.515Z,9.90
2023-12-29T08:50:31.465Z,10.00
2023-12-29T08:52:58.052Z,10.00
2023-12-29T08:55:24.688Z,10.00
2023-12-29T08:57:51.480Z,10.00
2023-12-29T09:00:18.394Z,10.00
2023-12-29T09:02:45.567Z,10.00
2023-12-29T09:05:12.928Z,10.00
2023-12-29T09:07:39.702Z,10.00
2023-12-29T09:10:12.458Z,10.00
2023-12-29T09:12:42.023Z,10.00
2023-12-29T09:15:09.260Z,10.10
2023-12-29T09:17:36.182Z,10.10
2023-12-29T09:20:10.437Z,10.10
2023-12-29T09:22:38.384Z,10.10
2023-12-29T09:25:05.760Z,10.20
2023-12-29T09:27:32.439Z,10.20
2023-12-29T09:29:59.137Z,10.30
2023-12-29T09:32:25.829Z,10.30
2023-12-29T09:34:52.722Z,10.30
2023-12-29T09:37:19.578Z,10.30
2023-12-29T09:39:46.402Z,10.10
2023-12-29T09:42:22.854Z,10.40
2023-12-29T09:44:53.296Z,10.40
2023-12-29T09:47:25.676Z,10.50
2023-12-29T09:49:56.313Z,10.50
2023-12-29T09:52:23.906Z,10.50
2023-12-29T09:54:54.093Z,10.60
2023-12-29T09:57:21.459Z,10.60
2023-12-29T09:59:52.837Z,10.50
2023-12-29T10:02:23.445Z,11.30
2023-12-29T10:04:50.451Z,10.50
2023-12-29T10:07:25.454Z,10.60
2023-12-29T10:09:56.435Z,10.50
2023-12-29T10:12:24.657Z,10.60
2023-12-29T10:15:12.873Z,10.60
2023-12-29T10:17:52.515Z,10.60
2023-12-29T10:20:37.861Z,10.70
2023-12-29T10:23:14.360Z,10.70
2023-12-29T10:25:42.180Z,10.80
2023-12-29T10:28:10.698Z,10.70
2023-12-29T10:30:38.757Z,10.70
2023-12-29T10:33:06.911Z,10.70
2023-12-29T10:35:36.868Z,10.70
2023-12-29T10:38:13.306Z,10.80
2023-12-29T10:40:41.386Z,10.80
2023-12-29T10:43:09.747Z,10.80
2023-12-29T10:45:39.813Z,10.80
2023-12-29T10:48:06.980Z,10.80
2023-12-29T10:50:45.193Z,10.80
2023-12-29T10:53:13.712Z,10.90
2023-12-29T10:55:40.355Z,10.90
2023-12-29T10:58:07.278Z,11.00
2023-12-29T11:00:34.399Z,11.00
2023-12-29T11:03:01.787Z,11.10
2023-12-29T11:05:29.319Z,11.10
2023-12-29T11:07:56.408Z,11.10
2023-12-29T11:10:23.382Z,11.10
2023-12-29T11:12:50.721Z,11.10
2023-12-29T11:15:17.967Z,11.10
2023-12-29T11:17:50.882Z,11.10
2023-12-29T11:20:18.086Z,11.10
2023-12-29T11:22:47.660Z,11.10
2023-12-29T11:25:16.936Z,11.10
2023-12-29T11:27:44.063Z,11.10
2023-12-29T11:30:14.843Z,11.10
2023-12-29T11:32:48.199Z,11.10
2023-12-29T11:35:22.969Z,11.20
2023-12-29T11:38:21.290Z,11.20
2023-12-29T11:41:08.325Z,11.10
2023-12-29T11:43:35.267Z,11.20
2023-12-29T11:46:02.081Z,11.30
2023-12-29T11:49:02.578Z,11.20
2023-12-29T11:51:34.871Z,11.20
2023-12-29T11:54:05.785Z,11.30
2023-12-29T11:56:37.772Z,11.30
2023-12-29T11:59:16.851Z,11.20
2023-12-29T12:01:44.404Z,11.20
2023-12-29T12:04:43.776Z,11.20
2023-12-29T12:07:38.547Z,11.20
2023-12-29T12:10:24.407Z,11.20
2023-12-29T12:12:52.925Z,11.20
2023-12-29T12:15:32.211Z,11.20
2023-12-29T12:18:01.158Z,11.10
2023-12-29T12:20:29.392Z,11.10
2023-12-29T12:23:02.034Z,11.20
2023-12-29T12:25:30.984Z,11.20
2023-12-29T12:27:58.604Z,11.20
2023-12-29T12:30:25.408Z,11.10
2023-12-29T12:33:00.150Z,11.20
2023-12-29T12:35:29.781Z,11.10
2023-12-29T12:38:09.536Z,10.90
2023-12-29T12:40:36.361Z,10.90
2023-12-29T12:43:04.867Z,10.80
2023-12-29T12:45:38.603Z,10.60
2023-12-29T12:48:24.693Z,10.50
2023-12-29T12:50:52.089Z,10.40
2023-12-29T12:53:22.367Z,10.30
2023-12-29T12:55:53.456Z,10.30
2023-12-29T12:58:22.298Z,10.30
2023-12-29T13:00:52.622Z,10.30
2023-12-29T13:03:20.916Z,10.20
2023-12-29T13:05:47.872Z,10.20
2023-12-29T13:08:18.947Z,10.20
2023-12-29T13:10:50.792Z,10.30
2023-12-29T13:13:19.676Z,10.20
2023-12-29T13:15:52.973Z,10.10
2023-12-29T13:18:30.320Z,10.10
2023-12-29T13:20:57.180Z,10.10
2023-12-29T13:23:28.836Z,10.20
2023-12-29T13:25:59.961Z,9.80
2023-12-29T13:28:28.083Z,10.30
2023-12-29T13:30:56.555Z,10.30
2023-12-29T13:33:36.012Z,10.40
2023-12-29T13:36:13.571Z,10.40
2023-12-29T13:38:51.638Z,10.30
2023-12-29T13:41:20.302Z,10.40
2023-12-29T13:43:47.766Z,10.30
2023-12-29T13:46:17.482Z,10.40
2023-12-29T13:48:46.556Z,10.40
2023-12-29T13:51:13.346Z,10.40
2023-12-29T13:53:40.095Z,10.40
2023-12-29T13:56:08.795Z,10.50
2023-12-29T13:58:35.632Z,10.50
2023-12-29T14:01:04.339Z,10.50
2023-12-29T14:03:45.878Z,10.50
2023-12-29T14:06:21.341Z,10.50
2023-12-29T14:08:48.331Z,10.60
2023-12-29T14:11:15.110Z,10.60
2023-12-29T14:13:46.322Z,10.60
2023-12-29T14:16:16.587Z,10.30
2023-12-29T14:18:55.222Z,10.60
2023-12-29T14:21:27.842Z,10.50
2023-12-29T14:24:14.207Z,10.60
2023-12-29T14:26:45.579Z,10.60
2023-12-29T14:29:13.404Z,10.60
2023-12-29T14:31:41.837Z,10.60
2023-12-29T14:34:09.524Z,10.70
2023-12-29T14:36:37.850Z,10.70
2023-12-29T14:39:05.857Z,10.60
2023-12-29T14:41:33.213Z,10.60
2023-12-29T14:44:00.546Z,10.60
2023-12-29T14:46:27.300Z,10.60
2023-12-29T14:48:55.269Z,10.60
2023-12-29T14:51:23.122Z,10.60
2023-12-29T14:53:50.966Z,10.70
2023-12-29T14:56:18.523Z,10.60
2023-12-29T14:58:45.612Z,10.70
2023-12-29T15:01:12.372Z,10.70
2023-12-29T15:03:39.288Z,10.70
2023-12-29T15:06:06.172Z,10.70
2023-12-29T15:08:35.696Z,10.60
2023-12-29T15:11:04.221Z,10.60
2023-12-29T15:13:31.660Z,10.60
2023-12-29T15:16:02.826Z,10.50
2023-12-29T15:18:31.897Z,10.50
2023-12-29T15:20:59.461Z,10.50
2023-12-29T15:23:26.319Z,10.40
2023-12-29T15:25:53.565Z,10.40
2023-12-29T15:28:20.252Z,10.40
2023-12-29T15:30:47.737Z,10.40
2023-12-29T15:33:15.221Z,10.40
2023-12-29T15:35:42.299Z,10.40
2023-12-29T15:38:09.991Z,10.50
2023-12-29T15:40:37.091Z,10.40
2023-12-29T15:43:04.688Z,10.40
2023-12-29T15:45:35.728Z,10.40
2023-12-29T15:48:02.899Z,10.40
2023-12-29T15:50:30.004Z,10.40
2023-12-29T15:52:56.694Z,10.50
2023-12-29T15:55:23.410Z,10.50
2023-12-29T15:57:50.233Z,10.50
2023-12-29T16:00:17.364Z,10.40
2023-12-29T16:02:44.170Z,10.40
2023-12-29T16:05:10.932Z,10.30
2023-12-29T16:07:37.642Z,10.30
2023-12-29T16:10:04.973Z,10.40
2023-12-29T16:12:31.850Z,10.40
2023-12-29T16:14:58.488Z,10.40
2023-12-29T16:17:25.142Z,10.40
2023-12-29T16:19:51.885Z,10.40
2023-12-29T16:22:18.701Z,10.40
2023-12-29T16:24:45.583Z,10.40
2023-12-29T16:27:12.296Z,10.40
2023-12-29T16:29:38.983Z,10.40
2023-12-29T16:32:06.159Z,10.30
2023-12-29T16:34:33.154Z,10.30
2023-12-29T16:37:01.686Z,10.40
2023-12-29T16:39:28.890Z,10.40
2023-12-29T16:41:55.884Z,10.40
2023-12-29T16:44:22.636Z,10.40
2023-12-29T16:46:49.321Z,10.50
2023-12-29T16:49:16.172Z,10.40
2023-12-29T16:51:44.809Z,10.40
2023-12-29T16:54:12.160Z,10.40
2023-12-29T16:56:38.956Z,10.50
2023-12-29T16:59:07.081Z,10.30
2023-12-29T17:01:34.436Z,10.40
2023-12-29T17:04:01.501Z,10.30
2023-12-29T17:06:28.726Z,10.40
2023-12-29T17:08:55.494Z,10.40
2023-12-29T17:11:22.216Z,10.50
2023-12-29T17:13:48.870Z,10.40
2023-12-29T17:16:17.023Z,10.40
2023-12-29T17:18:44.446Z,10.30
2023-12-29T17:21:12.152Z,10.30
2023-12-29T17:23:38.845Z,10.20
2023-12-29T17:26:10.994Z,10.10
2023-12-29T17:28:37.748Z,10.10
2023-12-29T17:31:06.657Z,10.10
2023-12-29T17:33:33.538Z,10.20
2023-12-29T17:36:00.303Z,10.10
2023-12-29T17:38:27.149Z,10.20
2023-12-29T17:40:53.751Z,10.20
2023-12-29T17:43:20.399Z,10.20
2023-12-29T17:45:47.515Z,10.30
2023-12-29T17:48:14.935Z,10.30
2023-12-29T17:50:42.043Z,10.30
2023-12-29T17:53:08.816Z,10.30
2023-12-29T17:55:35.574Z,10.30
2023-12-29T17:58:02.391Z,10.30
2023-12-29T18:00:29.479Z,10.30
2023-12-29T18:02:56.140Z,10.30
2023-12-29T18:05:23.002Z,10.30
2023-12-29T18:07:49.694Z,10.20
2023-12-29T18:10:16.414Z,9.90
2023-12-29T18:12:43.411Z,10.30
2023-12-29T18:15:14.563Z,10.40
2023-12-29T18:17:42.522Z,11.40
2023-12-29T18:20:13.927Z,10.30
2023-12-29T18:22:40.865Z,10.30
2023-12-29T18:25:08.192Z,10.20
2023-12-29T18:27:34.949Z,10.30
2023-12-29T18:30:01.672Z,10.20
2023-12-29T18:32:28.547Z,10.30
2023-12-29T18:35:06.017Z,10.30
2023-12-29T18:37:34.774Z,10.20
2023-12-29T18:40:01.543Z,10.30
2023-12-29T18:42:28.260Z,10.30
2023-12-29T18:44:54.963Z,10.40
2023-12-29T18:47:21.591Z,10.40
2023-12-29T18:49:48.700Z,10.40
2023-12-29T18:52:15.521Z,10.40
2023-12-29T18:54:42.854Z,10.50
2023-12-29T18:57:09.572Z,10.70
2023-12-29T18:59:36.444Z,10.50
2023-12-29T19:02:03.394Z,10.40
2023-12-29T19:04:30.220Z,10.40
2023-12-29T19:06:57.842Z,10.30
2023-12-29T19:09:24.460Z,10.30
2023-12-29T19:11:52.159Z,10.30
2023-12-29T19:14:18.774Z,10.40
2023-12-29T19:16:45.455Z,10.30
2023-12-29T19:19:12.407Z,10.30
2023-12-29T19:21:49.609Z,10.20
2023-12-29T19:24:17.952Z,10.10
2023-12-29T19:26:44.604Z,10.00
2023-12-29T19:29:11.822Z,10.10
2023-12-29T19:31:38.717Z,10.00
2023-12-29T19:34:06.062Z,10.00
2023-12-29T19:36:32.904Z,10.00
2023-12-29T19:38:59.764Z,9.90
2023-12-29T19:41:34.755Z,9.80
2023-12-29T19:44:01.490Z,9.40
2023-12-29T19:46:28.596Z,9.50
2023-12-29T19:48:55.948Z,9.40
2023-12-29T19:51:23.261Z,9.40
2023-12-29T19:53:50.039Z,9.30
2023-12-29T19:56:25.766Z,9.20
2023-12-29T19:58:52.556Z,9.30
2023-12-29T20:01:19.313Z,9.20
2023-12-29T20:03:46.226Z,9.20
2023-12-29T20:06:23.854Z,9.10
2023-12-29T20:08:51.798Z,9.20
2023-12-29T20:11:19.341Z,9.20
2023-12-29T20:13:46.065Z,9.20
2023-12-29T20:16:25.828Z,9.20
2023-12-29T20:18:54.064Z,9.20
2023-12-29T20:21:24.638Z,9.20
2023-12-29T20:23:52.075Z,9.20
2023-12-29T20:26:23.352Z,9.10
2023-12-29T20:28:51.654Z,9.10
2023-12-29T20:31:32.514Z,9.10
2023-12-29T20:33:59.947Z,9.00
2023-12-29T20:36:27.530Z,9.10
2023-12-29T20:38:59.771Z,9.10
2023-12-29T20:41:26.960Z,9.00
2023-12-29T20:43:55.089Z,9.00
2023-12-29T20:46:22.452Z,9.10
2023-12-29T20:48:49.788Z,9.10
2023-12-29T20:51:20.370Z,8.90
2023-12-29T20:53:48.164Z,8.90
2023-12-29T20:56:16.019Z,8.90
2023-12-29T20:58:42.933Z,8.90
2023-12-29T21:01:09.788Z,8.80
2023-12-29T21:03:37.293Z,8.70
2023-12-29T21:06:06.800Z,8.80
2023-12-29T21:08:34.690Z,8.70
2023-12-29T21:11:02.206Z,8.70
2023-12-29T21:13:31.269Z,8.60
2023-12-29T21:15:58.337Z,8.50
2023-12-29T21:18:25.315Z,8.40
2023-12-29T21:20:52.751Z,8.50
2023-12-29T21:23:20.226Z,8.60
2023-12-29T21:25:46.971Z,8.50
2023-12-29T21:28:13.656Z,8.80
2023-12-29T21:30:40.380Z,8.60
2023-12-29T21:33:07.123Z,8.60
2023-12-29T21:35:33.863Z,8.50
2023-12-29T21:38:00.596Z,8.50
2023-12-29T21:40:27.286Z,8.40
2023-12-29T21:42:53.998Z,8.50
2023-12-29T21:45:21.636Z,8.50
2023-12-29T21:47:49.248Z,8.50
2023-12-29T21:50:15.913Z,8.40
2023-12-29T21:52:42.616Z,8.40
2023-12-29T21:55:09.385Z,8.40
2023-12-29T21:57:36.125Z,8.40
2023-12-29T22:00:04.532Z,8.40
2023-12-29T22:02:31.343Z,8.40
2023-12-29T22:04:58.057Z,8.50
2023-12-29T22:07:24.929Z,8.40
2023-12-29T22:09:51.690Z,8.40
2023-12-29T22:12:18.337Z,8.40
2023-12-29T22:14:44.950Z,8.40
2023-12-29T22:17:11.560Z,8.40
2023-12-29T22:19:40.387Z,8.40
2023-12-29T22:22:07.139Z,8.40
2023-12-29T22:24:33.781Z,8.50
2023-12-29T22:27:00.636Z,8.60
2023-12-29T22:29:27.555Z,8.70
2023-12-29T22:31:54.487Z,8.70
2023-12-29T22:34:21.699Z,8.50
2023-12-29T22:36:48.481Z,8.80
2023-12-29T22:39:15.453Z,8.80
2023-12-29T22:41:42.102Z,8.90
2023-12-29T22:44:08.806Z,8.90
2023-12-29T22:46:35.989Z,9.00
2023-12-29T22:49:02.830Z,8.90
2023-12-29T22:51:30.089Z,9.00
2023-12-29T22:53:56.761Z,9.00
2023-12-29T22:56:23.475Z,9.00
2023-12-29T22:58:51.087Z,9.00
2023-12-29T23:01:17.837Z,9.00
2023-12-29T23:03:44.536Z,9.00
2023-12-29T23:06:11.402Z,9.00
2023-12-29T23:08:38.085Z,9.10
2023-12-29T23:11:04.822Z,9.00
2023-12-29T23:13:31.580Z,8.90
2023-12-29T23:15:59.315Z,8.10
2023-12-29T23:18:26.119Z,7.80
2023-12-29T23:20:52.864Z,7.80
2023-12-29T23:23:19.481Z,7.70
2023-12-29T23:25:46.128Z,7.60
2023-12-29T23:28:12.825Z,7.40
2023-12-29T23:30:39.852Z,7.40
2023-12-29T23:33:06.828Z,7.40
2023-12-29T23:35:34.103Z,7.30
2023-12-29T23:38:01.051Z,7.20
2023-12-29T23:40:27.827Z,7.20
2023-12-29T23:42:55.359Z,7.20
2023-12-29T23:45:22.043Z,7.20
2023-12-29T23:47:48.745Z,7.20
2023-12-29T23:50:15.565Z,7.20
2023-12-29T23:52:42.284Z,7.20
2023-12-29T23:55:09.197Z,7.20
2023-12-29T23:57:37.654Z,7.20
